sensor_id;sensor_type;location;lat;lon;timestamp;P1;durP1;ratioP1;P2;durP2;ratioP2
40256;SDS011;25977;45.462;9.210;2022-11-15T00:01:52;15.77;;;11.15;;
40256;SDS011;25977;45.462;9.210;2022-11-15T00:04:36;19.65;;;10.32;;
40256;SDS011;25977;45.462;9.210;2022-11-15T00:07:20;17.73;;;11.30;;
40256;SDS011;25977;45.462;9.210;2022-11-15T00:10:06;14.38;;;11.52;;
40256;SDS011;25977;45.462;9.210;2022-11-15T00:12:50;14.88;;;10.45;;
40256;SDS011;25977;45.462;9.210;2022-11-15T00:15:35;14.75;;;9.10;;
40256;SDS011;25977;45.462;9.210;2022-11-15T00:18:20;14.60;;;10.43;;
40256;SDS011;25977;45.462;9.210;2022-11-15T00:21:05;15.98;;;11.20;;
40256;SDS011;25977;45.462;9.210;2022-11-15T00:23:50;20.27;;;10.27;;
40256;SDS011;25977;45.462;9.210;2022-11-15T00:26:34;13.63;;;9.55;;
40256;SDS011;25977;45.462;9.210;2022-11-15T00:29:18;16.67;;;10.98;;
40256;SDS011;25977;45.462;9.210;2022-11-15T00:32:04;16.17;;;9.95;;
40256;SDS011;25977;45.462;9.210;2022-11-15T00:34:48;16.95;;;9.90;;
40256;SDS011;25977;45.462;9.210;2022-11-15T00:37:32;13.85;;;10.38;;
40256;SDS011;25977;45.462;9.210;2022-11-15T00:40:16;16.50;;;10.63;;
40256;SDS011;25977;45.462;9.210;2022-11-15T00:43:00;19.02;;;10.73;;
40256;SDS011;25977;45.462;9.210;2022-11-15T00:45:44;14.63;;;10.32;;
40256;SDS011;25977;45.462;9.210;2022-11-15T00:48:28;15.63;;;10.90;;
40256;SDS011;25977;45.462;9.210;2022-11-15T00:51:12;16.33;;;10.45;;
40256;SDS011;25977;45.462;9.210;2022-11-15T00:53:57;20.38;;;10.98;;
40256;SDS011;25977;45.462;9.210;2022-11-15T00:56:41;15.32;;;10.75;;
40256;SDS011;25977;45.462;9.210;2022-11-15T00:59:25;17.17;;;10.50;;
40256;SDS011;25977;45.462;9.210;2022-11-15T01:02:09;15.07;;;11.27;;
40256;SDS011;25977;45.462;9.210;2022-11-15T01:04:54;19.25;;;10.98;;
40256;SDS011;25977;45.462;9.210;2022-11-15T01:07:38;12.30;;;9.35;;
40256;SDS011;25977;45.462;9.210;2022-11-15T01:10:23;12.90;;;9.43;;
40256;SDS011;25977;45.462;9.210;2022-11-15T01:13:07;12.82;;;9.93;;
40256;SDS011;25977;45.462;9.210;2022-11-15T01:15:51;16.27;;;10.63;;
40256;SDS011;25977;45.462;9.210;2022-11-15T01:18:36;17.10;;;10.65;;
40256;SDS011;25977;45.462;9.210;2022-11-15T01:21:20;14.43;;;10.32;;
40256;SDS011;25977;45.462;9.210;2022-11-15T01:24:04;14.85;;;9.07;;
40256;SDS011;25977;45.462;9.210;2022-11-15T01:26:48;13.65;;;10.30;;
40256;SDS011;25977;45.462;9.210;2022-11-15T01:29:33;17.33;;;10.20;;
40256;SDS011;25977;45.462;9.210;2022-11-15T01:32:17;12.40;;;8.98;;
40256;SDS011;25977;45.462;9.210;2022-11-15T01:35:01;16.30;;;10.77;;
40256;SDS011;25977;45.462;9.210;2022-11-15T01:37:45;16.27;;;10.15;;
40256;SDS011;25977;45.462;9.210;2022-11-15T01:40:30;14.85;;;10.20;;
40256;SDS011;25977;45.462;9.210;2022-11-15T01:43:21;13.80;;;9.80;;
40256;SDS011;25977;45.462;9.210;2022-11-15T01:49:15;16.45;;;10.05;;
40256;SDS011;25977;45.462;9.210;2022-11-15T01:52:02;12.13;;;9.13;;
40256;SDS011;25977;45.462;9.210;2022-11-15T01:54:50;12.38;;;9.40;;
40256;SDS011;25977;45.462;9.210;2022-11-15T01:57:45;11.52;;;9.40;;
40256;SDS011;25977;45.462;9.210;2022-11-15T02:00:31;17.23;;;10.05;;
40256;SDS011;25977;45.462;9.210;2022-11-15T02:03:15;14.35;;;9.45;;
40256;SDS011;25977;45.462;9.210;2022-11-15T02:06:00;15.13;;;9.77;;
40256;SDS011;25977;45.462;9.210;2022-11-15T02:08:45;19.77;;;9.98;;
40256;SDS011;25977;45.462;9.210;2022-11-15T02:11:29;14.30;;;10.02;;
40256;SDS011;25977;45.462;9.210;2022-11-15T02:14:15;12.57;;;8.85;;
40256;SDS011;25977;45.462;9.210;2022-11-15T02:17:13;13.60;;;9.23;;
40256;SDS011;25977;45.462;9.210;2022-11-15T02:29:34;12.95;;;9.07;;
40256;SDS011;25977;45.462;9.210;2022-11-15T02:32:23;13.98;;;9.73;;
40256;SDS011;25977;45.462;9.210;2022-11-15T02:35:34;12.45;;;8.50;;
40256;SDS011;25977;45.462;9.210;2022-11-15T02:38:31;13.45;;;10.18;;
40256;SDS011;25977;45.462;9.210;2022-11-15T02:41:45;11.15;;;8.80;;
40256;SDS011;25977;45.462;9.210;2022-11-15T02:44:40;12.07;;;9.50;;
40256;SDS011;25977;45.462;9.210;2022-11-15T02:47:29;12.32;;;9.18;;
40256;SDS011;25977;45.462;9.210;2022-11-15T02:50:21;11.82;;;9.43;;
40256;SDS011;25977;45.462;9.210;2022-11-15T02:53:10;14.25;;;8.77;;
40256;SDS011;25977;45.462;9.210;2022-11-15T02:55:54;14.18;;;9.68;;
40256;SDS011;25977;45.462;9.210;2022-11-15T03:01:44;10.32;;;8.50;;
40256;SDS011;25977;45.462;9.210;2022-11-15T03:13:27;13.30;;;9.63;;
40256;SDS011;25977;45.462;9.210;2022-11-15T03:19:54;12.10;;;8.60;;
40256;SDS011;25977;45.462;9.210;2022-11-15T03:22:14;13.20;;;9.52;;
40256;SDS011;25977;45.462;9.210;2022-11-15T03:25:02;14.65;;;9.43;;
40256;SDS011;25977;45.462;9.210;2022-11-15T03:27:51;14.02;;;9.07;;
40256;SDS011;25977;45.462;9.210;2022-11-15T03:30:38;12.82;;;9.55;;
40256;SDS011;25977;45.462;9.210;2022-11-15T03:33:23;12.85;;;8.45;;
40256;SDS011;25977;45.462;9.210;2022-11-15T03:36:08;15.70;;;9.80;;
40256;SDS011;25977;45.462;9.210;2022-11-15T03:38:53;12.73;;;8.60;;
40256;SDS011;25977;45.462;9.210;2022-11-15T03:42:08;12.82;;;9.38;;
40256;SDS011;25977;45.462;9.210;2022-11-15T03:47:58;12.65;;;9.85;;
40256;SDS011;25977;45.462;9.210;2022-11-15T03:50:44;13.95;;;8.65;;
40256;SDS011;25977;45.462;9.210;2022-11-15T03:53:29;14.52;;;9.88;;
40256;SDS011;25977;45.462;9.210;2022-11-15T03:56:15;13.43;;;9.70;;
40256;SDS011;25977;45.462;9.210;2022-11-15T03:58:59;15.35;;;9.88;;
40256;SDS011;25977;45.462;9.210;2022-11-15T04:01:43;14.38;;;9.88;;
40256;SDS011;25977;45.462;9.210;2022-11-15T04:04:28;15.05;;;9.27;;
40256;SDS011;25977;45.462;9.210;2022-11-15T04:07:12;12.85;;;9.95;;
40256;SDS011;25977;45.462;9.210;2022-11-15T04:09:56;14.82;;;9.85;;
40256;SDS011;25977;45.462;9.210;2022-11-15T04:12:46;12.57;;;8.98;;
40256;SDS011;25977;45.462;9.210;2022-11-15T04:15:31;16.13;;;10.40;;
40256;SDS011;25977;45.462;9.210;2022-11-15T04:18:15;11.43;;;9.25;;
40256;SDS011;25977;45.462;9.210;2022-11-15T04:20:59;13.88;;;10.13;;
40256;SDS011;25977;45.462;9.210;2022-11-15T04:27:01;15.93;;;9.30;;
40256;SDS011;25977;45.462;9.210;2022-11-15T04:29:45;13.20;;;9.82;;
40256;SDS011;25977;45.462;9.210;2022-11-15T04:32:30;14.68;;;8.77;;
40256;SDS011;25977;45.462;9.210;2022-11-15T04:35:14;14.68;;;9.75;;
40256;SDS011;25977;45.462;9.210;2022-11-15T04:37:59;10.68;;;9.23;;
40256;SDS011;25977;45.462;9.210;2022-11-15T04:40:44;14.73;;;9.98;;
40256;SDS011;25977;45.462;9.210;2022-11-15T04:43:28;13.73;;;9.55;;
40256;SDS011;25977;45.462;9.210;2022-11-15T04:46:12;15.85;;;9.32;;
40256;SDS011;25977;45.462;9.210;2022-11-15T04:48:56;11.02;;;8.52;;
40256;SDS011;25977;45.462;9.210;2022-11-15T04:51:40;15.07;;;10.48;;
40256;SDS011;25977;45.462;9.210;2022-11-15T04:54:24;12.68;;;9.32;;
40256;SDS011;25977;45.462;9.210;2022-11-15T04:57:09;16.08;;;10.00;;
40256;SDS011;25977;45.462;9.210;2022-11-15T04:59:53;13.63;;;9.30;;
40256;SDS011;25977;45.462;9.210;2022-11-15T05:02:37;16.45;;;9.98;;
40256;SDS011;25977;45.462;9.210;2022-11-15T05:05:40;13.80;;;9.20;;
40256;SDS011;25977;45.462;9.210;2022-11-15T05:08:25;16.17;;;9.50;;
40256;SDS011;25977;45.462;9.210;2022-11-15T05:11:10;13.70;;;9.77;;
40256;SDS011;25977;45.462;9.210;2022-11-15T05:13:54;12.98;;;9.70;;
40256;SDS011;25977;45.462;9.210;2022-11-15T05:16:38;20.67;;;9.68;;
40256;SDS011;25977;45.462;9.210;2022-11-15T05:19:23;15.43;;;9.48;;
40256;SDS011;25977;45.462;9.210;2022-11-15T05:22:08;15.35;;;9.05;;
40256;SDS011;25977;45.462;9.210;2022-11-15T05:24:52;10.35;;;8.73;;
40256;SDS011;25977;45.462;9.210;2022-11-15T05:27:36;11.35;;;7.95;;
40256;SDS011;25977;45.462;9.210;2022-11-15T05:30:20;17.40;;;8.23;;
40256;SDS011;25977;45.462;9.210;2022-11-15T05:33:05;7.93;;;7.13;;
40256;SDS011;25977;45.462;9.210;2022-11-15T05:35:51;9.05;;;6.97;;
40256;SDS011;25977;45.462;9.210;2022-11-15T05:38:42;8.10;;;7.15;;
40256;SDS011;25977;45.462;9.210;2022-11-15T05:41:29;9.77;;;6.93;;
40256;SDS011;25977;45.462;9.210;2022-11-15T05:44:23;10.02;;;6.95;;
40256;SDS011;25977;45.462;9.210;2022-11-15T05:47:10;8.00;;;7.25;;
40256;SDS011;25977;45.462;9.210;2022-11-15T05:49:57;9.20;;;6.50;;
40256;SDS011;25977;45.462;9.210;2022-11-15T05:52:41;8.73;;;7.60;;
40256;SDS011;25977;45.462;9.210;2022-11-15T05:55:27;9.48;;;8.15;;
40256;SDS011;25977;45.462;9.210;2022-11-15T05:58:10;7.05;;;6.45;;
40256;SDS011;25977;45.462;9.210;2022-11-15T06:00:55;8.60;;;7.10;;
40256;SDS011;25977;45.462;9.210;2022-11-15T06:03:38;8.23;;;7.45;;
40256;SDS011;25977;45.462;9.210;2022-11-15T06:06:23;10.60;;;6.85;;
40256;SDS011;25977;45.462;9.210;2022-11-15T06:09:07;9.57;;;7.03;;
40256;SDS011;25977;45.462;9.210;2022-11-15T06:11:52;8.27;;;7.43;;
40256;SDS011;25977;45.462;9.210;2022-11-15T06:14:36;7.45;;;6.65;;
40256;SDS011;25977;45.462;9.210;2022-11-15T06:17:20;9.15;;;7.55;;
40256;SDS011;25977;45.462;9.210;2022-11-15T06:20:04;11.48;;;7.65;;
40256;SDS011;25977;45.462;9.210;2022-11-15T06:22:48;7.80;;;7.03;;
40256;SDS011;25977;45.462;9.210;2022-11-15T06:25:33;9.88;;;7.28;;
40256;SDS011;25977;45.462;9.210;2022-11-15T06:28:17;8.95;;;7.40;;
40256;SDS011;25977;45.462;9.210;2022-11-15T06:31:05;8.18;;;7.40;;
40256;SDS011;25977;45.462;9.210;2022-11-15T06:33:51;7.70;;;6.97;;
40256;SDS011;25977;45.462;9.210;2022-11-15T06:36:35;8.15;;;7.07;;
40256;SDS011;25977;45.462;9.210;2022-11-15T06:39:19;7.90;;;7.10;;
40256;SDS011;25977;45.462;9.210;2022-11-15T06:42:03;9.75;;;6.93;;
40256;SDS011;25977;45.462;9.210;2022-11-15T06:44:47;9.80;;;7.32;;
40256;SDS011;25977;45.462;9.210;2022-11-15T06:47:32;7.90;;;7.05;;
40256;SDS011;25977;45.462;9.210;2022-11-15T06:50:16;10.38;;;8.40;;
40256;SDS011;25977;45.462;9.210;2022-11-15T06:53:00;8.82;;;7.18;;
40256;SDS011;25977;45.462;9.210;2022-11-15T06:55:46;8.00;;;6.88;;
40256;SDS011;25977;45.462;9.210;2022-11-15T06:58:31;7.72;;;6.28;;
40256;SDS011;25977;45.462;9.210;2022-11-15T07:01:17;7.32;;;6.53;;
40256;SDS011;25977;45.462;9.210;2022-11-15T07:04:00;8.50;;;6.70;;
40256;SDS011;25977;45.462;9.210;2022-11-15T07:06:48;7.38;;;6.70;;
40256;SDS011;25977;45.462;9.210;2022-11-15T07:09:32;10.30;;;7.43;;
40256;SDS011;25977;45.462;9.210;2022-11-15T07:12:16;8.60;;;7.07;;
40256;SDS011;25977;45.462;9.210;2022-11-15T07:15:00;11.75;;;7.82;;
40256;SDS011;25977;45.462;9.210;2022-11-15T07:17:44;7.75;;;6.95;;
40256;SDS011;25977;45.462;9.210;2022-11-15T07:20:28;10.73;;;7.72;;
40256;SDS011;25977;45.462;9.210;2022-11-15T07:23:12;10.55;;;7.30;;
40256;SDS011;25977;45.462;9.210;2022-11-15T07:25:57;9.02;;;7.22;;
40256;SDS011;25977;45.462;9.210;2022-11-15T07:28:41;8.50;;;7.10;;
40256;SDS011;25977;45.462;9.210;2022-11-15T07:31:25;11.95;;;7.78;;
40256;SDS011;25977;45.462;9.210;2022-11-15T07:34:09;15.75;;;8.23;;
40256;SDS011;25977;45.462;9.210;2022-11-15T07:36:54;11.02;;;7.35;;
40256;SDS011;25977;45.462;9.210;2022-11-15T07:39:39;8.82;;;6.85;;
40256;SDS011;25977;45.462;9.210;2022-11-15T07:42:23;11.75;;;8.02;;
40256;SDS011;25977;45.462;9.210;2022-11-15T07:45:26;15.07;;;7.68;;
40256;SDS011;25977;45.462;9.210;2022-11-15T07:48:10;10.98;;;7.70;;
40256;SDS011;25977;45.462;9.210;2022-11-15T07:50:55;15.95;;;8.32;;
40256;SDS011;25977;45.462;9.210;2022-11-15T07:53:39;13.80;;;7.50;;
40256;SDS011;25977;45.462;9.210;2022-11-15T07:56:23;9.52;;;7.03;;
40256;SDS011;25977;45.462;9.210;2022-11-15T07:59:07;19.65;;;7.95;;
40256;SDS011;25977;45.462;9.210;2022-11-15T08:01:51;13.50;;;8.75;;
40256;SDS011;25977;45.462;9.210;2022-11-15T08:04:35;39.63;;;10.90;;
40256;SDS011;25977;45.462;9.210;2022-11-15T08:07:19;15.10;;;7.68;;
40256;SDS011;25977;45.462;9.210;2022-11-15T08:10:03;39.92;;;10.55;;
40256;SDS011;25977;45.462;9.210;2022-11-15T08:12:57;17.00;;;7.97;;
40256;SDS011;25977;45.462;9.210;2022-11-15T08:15:43;24.20;;;9.82;;
40256;SDS011;25977;45.462;9.210;2022-11-15T08:18:27;18.45;;;8.85;;
40256;SDS011;25977;45.462;9.210;2022-11-15T08:21:13;23.15;;;9.43;;
40256;SDS011;25977;45.462;9.210;2022-11-15T08:24:01;22.20;;;9.57;;
40256;SDS011;25977;45.462;9.210;2022-11-15T08:26:46;27.08;;;9.60;;
40256;SDS011;25977;45.462;9.210;2022-11-15T08:29:30;11.20;;;8.23;;
40256;SDS011;25977;45.462;9.210;2022-11-15T08:32:14;11.15;;;8.07;;
40256;SDS011;25977;45.462;9.210;2022-11-15T08:34:59;14.35;;;8.20;;
40256;SDS011;25977;45.462;9.210;2022-11-15T08:37:43;15.63;;;8.48;;
40256;SDS011;25977;45.462;9.210;2022-11-15T08:40:27;15.38;;;8.25;;
40256;SDS011;25977;45.462;9.210;2022-11-15T08:43:11;14.77;;;9.73;;
40256;SDS011;25977;45.462;9.210;2022-11-15T08:45:57;13.80;;;9.27;;
40256;SDS011;25977;45.462;9.210;2022-11-15T08:48:41;29.65;;;9.77;;
40256;SDS011;25977;45.462;9.210;2022-11-15T08:51:25;18.17;;;10.35;;
40256;SDS011;25977;45.462;9.210;2022-11-15T08:54:09;12.88;;;8.82;;
40256;SDS011;25977;45.462;9.210;2022-11-15T08:56:53;13.18;;;9.25;;
40256;SDS011;25977;45.462;9.210;2022-11-15T08:59:38;17.20;;;9.52;;
40256;SDS011;25977;45.462;9.210;2022-11-15T09:02:22;14.48;;;9.90;;
40256;SDS011;25977;45.462;9.210;2022-11-15T09:05:06;15.85;;;9.80;;
40256;SDS011;25977;45.462;9.210;2022-11-15T09:07:54;16.27;;;9.80;;
40256;SDS011;25977;45.462;9.210;2022-11-15T09:10:38;11.13;;;8.18;;
40256;SDS011;25977;45.462;9.210;2022-11-15T09:13:24;12.55;;;9.48;;
40256;SDS011;25977;45.462;9.210;2022-11-15T09:16:08;16.23;;;9.75;;
40256;SDS011;25977;45.462;9.210;2022-11-15T09:18:52;19.42;;;10.32;;
40256;SDS011;25977;45.462;9.210;2022-11-15T09:21:37;23.38;;;9.98;;
40256;SDS011;25977;45.462;9.210;2022-11-15T09:24:21;13.48;;;8.20;;
40256;SDS011;25977;45.462;9.210;2022-11-15T09:27:09;13.50;;;8.98;;
40256;SDS011;25977;45.462;9.210;2022-11-15T09:29:53;17.20;;;9.10;;
40256;SDS011;25977;45.462;9.210;2022-11-15T09:32:37;16.83;;;9.50;;
40256;SDS011;25977;45.462;9.210;2022-11-15T09:35:25;13.98;;;9.13;;
40256;SDS011;25977;45.462;9.210;2022-11-15T09:38:09;16.33;;;11.07;;
40256;SDS011;25977;45.462;9.210;2022-11-15T09:40:57;21.38;;;10.15;;
40256;SDS011;25977;45.462;9.210;2022-11-15T09:44:15;19.55;;;10.38;;
40256;SDS011;25977;45.462;9.210;2022-11-15T09:47:19;15.55;;;10.02;;
40256;SDS011;25977;45.462;9.210;2022-11-15T09:50:47;10.15;;;8.55;;
40256;SDS011;25977;45.462;9.210;2022-11-15T09:56:25;13.50;;;8.00;;
40256;SDS011;25977;45.462;9.210;2022-11-15T09:58:57;11.40;;;7.78;;
40256;SDS011;25977;45.462;9.210;2022-11-15T10:04:20;10.77;;;7.60;;
40256;SDS011;25977;45.462;9.210;2022-11-15T10:07:05;9.40;;;7.20;;
40256;SDS011;25977;45.462;9.210;2022-11-15T10:09:49;15.30;;;9.05;;
40256;SDS011;25977;45.462;9.210;2022-11-15T10:12:21;11.52;;;8.00;;
40256;SDS011;25977;45.462;9.210;2022-11-15T10:14:48;11.82;;;7.57;;
40256;SDS011;25977;45.462;9.210;2022-11-15T10:20:21;13.80;;;8.02;;
40256;SDS011;25977;45.462;9.210;2022-11-15T10:22:58;12.02;;;7.90;;
40256;SDS011;25977;45.462;9.210;2022-11-15T10:25:26;13.60;;;8.25;;
40256;SDS011;25977;45.462;9.210;2022-11-15T10:30:47;11.50;;;7.30;;
40256;SDS011;25977;45.462;9.210;2022-11-15T10:41:14;10.73;;;7.37;;
40256;SDS011;25977;45.462;9.210;2022-11-15T10:46:38;11.50;;;7.03;;
40256;SDS011;25977;45.462;9.210;2022-11-15T10:49:13;11.93;;;7.35;;
40256;SDS011;25977;45.462;9.210;2022-11-15T10:51:51;12.70;;;7.50;;
40256;SDS011;25977;45.462;9.210;2022-11-15T10:57:20;11.23;;;7.88;;
40256;SDS011;25977;45.462;9.210;2022-11-15T10:59:49;12.32;;;8.93;;
40256;SDS011;25977;45.462;9.210;2022-11-15T11:08:03;9.90;;;8.48;;
40256;SDS011;25977;45.462;9.210;2022-11-15T11:10:30;11.15;;;8.95;;
40256;SDS011;25977;45.462;9.210;2022-11-15T11:13:33;11.20;;;7.60;;
40256;SDS011;25977;45.462;9.210;2022-11-15T11:15:55;12.50;;;7.85;;
40256;SDS011;25977;45.462;9.210;2022-11-15T11:18:41;12.02;;;7.85;;
40256;SDS011;25977;45.462;9.210;2022-11-15T11:21:10;14.10;;;8.40;;
40256;SDS011;25977;45.462;9.210;2022-11-15T11:26:39;13.70;;;8.82;;
40256;SDS011;25977;45.462;9.210;2022-11-15T11:32:06;12.20;;;8.85;;
40256;SDS011;25977;45.462;9.210;2022-11-15T11:34:38;12.57;;;9.32;;
40256;SDS011;25977;45.462;9.210;2022-11-15T11:40:12;15.15;;;9.70;;
40256;SDS011;25977;45.462;9.210;2022-11-15T11:45:53;15.13;;;11.02;;
40256;SDS011;25977;45.462;9.210;2022-11-15T11:48:40;17.35;;;11.68;;
40256;SDS011;25977;45.462;9.210;2022-11-15T11:51:10;16.10;;;10.77;;
40256;SDS011;25977;45.462;9.210;2022-11-15T11:56:29;16.92;;;9.93;;
40256;SDS011;25977;45.462;9.210;2022-11-15T12:02:10;14.10;;;9.73;;
40256;SDS011;25977;45.462;9.210;2022-11-15T12:04:45;14.73;;;10.95;;
40256;SDS011;25977;45.462;9.210;2022-11-15T12:07:28;20.05;;;13.07;;
40256;SDS011;25977;45.462;9.210;2022-11-15T12:10:15;19.13;;;12.07;;
40256;SDS011;25977;45.462;9.210;2022-11-15T12:15:33;17.00;;;12.65;;
40256;SDS011;25977;45.462;9.210;2022-11-15T12:18:04;16.85;;;12.40;;
40256;SDS011;25977;45.462;9.210;2022-11-15T12:20:34;20.60;;;11.98;;
40256;SDS011;25977;45.462;9.210;2022-11-15T12:23:06;19.00;;;11.30;;
40256;SDS011;25977;45.462;9.210;2022-11-15T12:33:45;17.50;;;11.55;;
40256;SDS011;25977;45.462;9.210;2022-11-15T12:38:57;16.25;;;10.38;;
40256;SDS011;25977;45.462;9.210;2022-11-15T12:43:57;15.18;;;11.43;;
40256;SDS011;25977;45.462;9.210;2022-11-15T12:57:35;16.05;;;11.65;;
40256;SDS011;25977;45.462;9.210;2022-11-15T12:59:57;16.92;;;10.02;;
40256;SDS011;25977;45.462;9.210;2022-11-15T13:02:24;17.30;;;10.80;;
40256;SDS011;25977;45.462;9.210;2022-11-15T13:25:21;11.82;;;7.65;;
40256;SDS011;25977;45.462;9.210;2022-11-15T13:27:48;8.75;;;6.72;;
40256;SDS011;25977;45.462;9.210;2022-11-15T13:30:19;10.65;;;8.15;;
40256;SDS011;25977;45.462;9.210;2022-11-15T13:32:50;7.25;;;6.22;;
40256;SDS011;25977;45.462;9.210;2022-11-15T13:35:27;13.60;;;8.45;;
40256;SDS011;25977;45.462;9.210;2022-11-15T13:37:55;9.05;;;7.32;;
40256;SDS011;25977;45.462;9.210;2022-11-15T13:42:55;12.40;;;8.38;;
40256;SDS011;25977;45.462;9.210;2022-11-15T13:45:21;9.77;;;7.47;;
40256;SDS011;25977;45.462;9.210;2022-11-15T13:47:51;10.70;;;7.43;;
40256;SDS011;25977;45.462;9.210;2022-11-15T13:50:19;8.20;;;6.15;;
40256;SDS011;25977;45.462;9.210;2022-11-15T13:52:49;9.95;;;7.38;;
40256;SDS011;25977;45.462;9.210;2022-11-15T13:55:17;7.22;;;6.38;;
40256;SDS011;25977;45.462;9.210;2022-11-15T13:57:46;7.88;;;6.97;;
40256;SDS011;25977;45.462;9.210;2022-11-15T14:06:06;9.07;;;5.90;;
40256;SDS011;25977;45.462;9.210;2022-11-15T14:08:38;8.40;;;6.55;;
40256;SDS011;25977;45.462;9.210;2022-11-15T14:11:15;7.07;;;5.88;;
40256;SDS011;25977;45.462;9.210;2022-11-15T14:16:45;6.85;;;5.97;;
40256;SDS011;25977;45.462;9.210;2022-11-15T14:19:34;7.38;;;6.43;;
40256;SDS011;25977;45.462;9.210;2022-11-15T14:22:16;7.88;;;6.35;;
40256;SDS011;25977;45.462;9.210;2022-11-15T14:31:29;7.47;;;6.70;;
40256;SDS011;25977;45.462;9.210;2022-11-15T14:33:58;7.47;;;6.65;;
40256;SDS011;25977;45.462;9.210;2022-11-15T14:36:23;9.45;;;6.55;;
40256;SDS011;25977;45.462;9.210;2022-11-15T14:38:49;7.68;;;6.53;;
40256;SDS011;25977;45.462;9.210;2022-11-15T14:41:22;9.10;;;5.60;;
40256;SDS011;25977;45.462;9.210;2022-11-15T14:44:14;7.32;;;5.05;;
40256;SDS011;25977;45.462;9.210;2022-11-15T14:46:46;6.38;;;5.43;;
40256;SDS011;25977;45.462;9.210;2022-11-15T14:49:13;5.50;;;4.78;;
40256;SDS011;25977;45.462;9.210;2022-11-15T14:51:40;6.30;;;5.68;;
40256;SDS011;25977;45.462;9.210;2022-11-15T14:54:09;8.30;;;6.15;;
40256;SDS011;25977;45.462;9.210;2022-11-15T14:56:35;9.00;;;5.95;;
40256;SDS011;25977;45.462;9.210;2022-11-15T14:59:01;6.53;;;5.07;;
40256;SDS011;25977;45.462;9.210;2022-11-15T15:01:27;9.43;;;6.55;;
40256;SDS011;25977;45.462;9.210;2022-11-15T15:03:53;6.40;;;5.57;;
40256;SDS011;25977;45.462;9.210;2022-11-15T15:06:22;8.00;;;6.13;;
40256;SDS011;25977;45.462;9.210;2022-11-15T15:08:48;10.80;;;6.25;;
40256;SDS011;25977;45.462;9.210;2022-11-15T15:11:16;7.13;;;6.22;;
40256;SDS011;25977;45.462;9.210;2022-11-15T15:13:51;9.60;;;6.30;;
40256;SDS011;25977;45.462;9.210;2022-11-15T15:16:18;10.10;;;7.68;;
40256;SDS011;25977;45.462;9.210;2022-11-15T15:18:44;8.88;;;6.95;;
40256;SDS011;25977;45.462;9.210;2022-11-15T15:21:23;10.02;;;6.72;;
40256;SDS011;25977;45.462;9.210;2022-11-15T15:23:50;8.10;;;6.20;;
40256;SDS011;25977;45.462;9.210;2022-11-15T15:26:17;10.73;;;8.02;;
40256;SDS011;25977;45.462;9.210;2022-11-15T15:28:43;9.55;;;7.47;;
40256;SDS011;25977;45.462;9.210;2022-11-15T15:31:09;10.35;;;7.00;;
40256;SDS011;25977;45.462;9.210;2022-11-15T15:33:36;8.40;;;6.28;;
40256;SDS011;25977;45.462;9.210;2022-11-15T15:36:02;7.90;;;6.75;;
40256;SDS011;25977;45.462;9.210;2022-11-15T15:38:28;12.23;;;6.97;;
40256;SDS011;25977;45.462;9.210;2022-11-15T15:40:53;8.20;;;6.47;;
40256;SDS011;25977;45.462;9.210;2022-11-15T15:43:20;8.20;;;6.25;;
40256;SDS011;25977;45.462;9.210;2022-11-15T15:45:45;7.53;;;5.85;;
40256;SDS011;25977;45.462;9.210;2022-11-15T15:48:15;7.47;;;5.97;;
40256;SDS011;25977;45.462;9.210;2022-11-15T15:50:42;6.35;;;5.75;;
40256;SDS011;25977;45.462;9.210;2022-11-15T15:53:08;7.82;;;6.40;;
40256;SDS011;25977;45.462;9.210;2022-11-15T15:55:35;6.22;;;5.63;;
40256;SDS011;25977;45.462;9.210;2022-11-15T15:58:02;9.90;;;6.60;;
40256;SDS011;25977;45.462;9.210;2022-11-15T16:00:28;7.78;;;6.30;;
40256;SDS011;25977;45.462;9.210;2022-11-15T16:02:54;9.18;;;6.10;;
40256;SDS011;25977;45.462;9.210;2022-11-15T16:05:20;6.50;;;5.78;;
40256;SDS011;25977;45.462;9.210;2022-11-15T16:07:47;8.00;;;6.63;;
40256;SDS011;25977;45.462;9.210;2022-11-15T16:10:20;7.60;;;5.43;;
40256;SDS011;25977;45.462;9.210;2022-11-15T16:12:54;6.35;;;5.72;;
40256;SDS011;25977;45.462;9.210;2022-11-15T16:15:21;8.43;;;5.97;;
40256;SDS011;25977;45.462;9.210;2022-11-15T16:23:05;13.35;;;6.47;;
40256;SDS011;25977;45.462;9.210;2022-11-15T16:25:34;9.32;;;6.25;;
40256;SDS011;25977;45.462;9.210;2022-11-15T16:28:11;13.27;;;6.75;;
40256;SDS011;25977;45.462;9.210;2022-11-15T16:33:26;11.02;;;7.00;;
40256;SDS011;25977;45.462;9.210;2022-11-15T16:35:52;11.77;;;8.32;;
40256;SDS011;25977;45.462;9.210;2022-11-15T16:38:18;8.30;;;7.40;;
40256;SDS011;25977;45.462;9.210;2022-11-15T16:40:44;9.45;;;7.80;;
40256;SDS011;25977;45.462;9.210;2022-11-15T16:43:10;9.27;;;7.35;;
40256;SDS011;25977;45.462;9.210;2022-11-15T16:45:36;8.18;;;6.78;;
40256;SDS011;25977;45.462;9.210;2022-11-15T16:48:02;7.35;;;6.20;;
40256;SDS011;25977;45.462;9.210;2022-11-15T16:50:29;8.85;;;6.60;;
40256;SDS011;25977;45.462;9.210;2022-11-15T16:52:57;6.88;;;6.05;;
40256;SDS011;25977;45.462;9.210;2022-11-15T16:55:24;7.03;;;6.22;;
40256;SDS011;25977;45.462;9.210;2022-11-15T16:57:52;7.47;;;6.45;;
40256;SDS011;25977;45.462;9.210;2022-11-15T17:00:19;7.97;;;6.95;;
40256;SDS011;25977;45.462;9.210;2022-11-15T17:02:46;9.15;;;6.68;;
40256;SDS011;25977;45.462;9.210;2022-11-15T17:05:14;8.98;;;7.13;;
40256;SDS011;25977;45.462;9.210;2022-11-15T17:07:45;8.32;;;6.35;;
40256;SDS011;25977;45.462;9.210;2022-11-15T17:10:18;7.15;;;6.43;;
40256;SDS011;25977;45.462;9.210;2022-11-15T17:12:44;10.73;;;6.88;;
40256;SDS011;25977;45.462;9.210;2022-11-15T17:15:10;10.13;;;6.50;;
40256;SDS011;25977;45.462;9.210;2022-11-15T17:17:37;7.63;;;6.15;;
40256;SDS011;25977;45.462;9.210;2022-11-15T17:20:04;9.25;;;7.20;;
40256;SDS011;25977;45.462;9.210;2022-11-15T17:22:36;9.27;;;6.93;;
40256;SDS011;25977;45.462;9.210;2022-11-15T17:25:03;7.30;;;6.55;;
40256;SDS011;25977;45.462;9.210;2022-11-15T17:27:29;8.00;;;7.18;;
40256;SDS011;25977;45.462;9.210;2022-11-15T17:29:55;8.85;;;6.95;;
40256;SDS011;25977;45.462;9.210;2022-11-15T17:32:21;7.80;;;6.78;;
40256;SDS011;25977;45.462;9.210;2022-11-15T17:34:47;12.50;;;7.30;;
40256;SDS011;25977;45.462;9.210;2022-11-15T17:37:13;10.63;;;7.25;;
40256;SDS011;25977;45.462;9.210;2022-11-15T17:39:38;9.02;;;8.02;;
40256;SDS011;25977;45.462;9.210;2022-11-15T17:42:04;8.75;;;7.22;;
40256;SDS011;25977;45.462;9.210;2022-11-15T17:44:30;11.75;;;7.82;;
40256;SDS011;25977;45.462;9.210;2022-11-15T17:46:56;13.00;;;8.27;;
40256;SDS011;25977;45.462;9.210;2022-11-15T17:49:22;9.77;;;7.65;;
40256;SDS011;25977;45.462;9.210;2022-11-15T17:51:48;11.65;;;9.02;;
40256;SDS011;25977;45.462;9.210;2022-11-15T17:54:13;10.85;;;8.10;;
40256;SDS011;25977;45.462;9.210;2022-11-15T17:56:39;8.85;;;7.47;;
40256;SDS011;25977;45.462;9.210;2022-11-15T17:59:06;11.70;;;8.18;;
40256;SDS011;25977;45.462;9.210;2022-11-15T18:01:32;7.65;;;6.82;;
40256;SDS011;25977;45.462;9.210;2022-11-15T18:04:01;8.95;;;6.88;;
40256;SDS011;25977;45.462;9.210;2022-11-15T18:06:29;6.20;;;5.43;;
40256;SDS011;25977;45.462;9.210;2022-11-15T18:08:57;9.05;;;6.68;;
40256;SDS011;25977;45.462;9.210;2022-11-15T18:11:33;9.38;;;7.35;;
40256;SDS011;25977;45.462;9.210;2022-11-15T18:14:03;8.00;;;6.60;;
40256;SDS011;25977;45.462;9.210;2022-11-15T18:16:31;11.10;;;8.25;;
40256;SDS011;25977;45.462;9.210;2022-11-15T18:18:58;9.45;;;8.15;;
40256;SDS011;25977;45.462;9.210;2022-11-15T18:21:26;11.07;;;9.27;;
40256;SDS011;25977;45.462;9.210;2022-11-15T18:23:54;11.10;;;8.23;;